Time;durP1;ratioP1;P1;durP2;ratioP2;P2;SDS_P1;SDS_P2;PMS_P1;PMS_P2;Temp;Humidity;BMP_temperature;BMP_pressure;BME280_temperature;BME280_humidity;BME280_pressure;Samples;Min_cycle;Max_cycle;Signal;HPM_P1;HPM_P2
2021/01/04 00:00:47;;;;;;;0.00;0.00;;;;;;;;;;4962155;28;20185;-71
2021/01/04 00:03:23;;;;;;;2.33;1.90;;;;;;;;;;4963070;28;20225;-68
2021/01/04 00:05:53;;;;;;;1.50;0.47;;;;;;;;;;4962321;28;20186;-69
2021/01/04 00:08:36;;;;;;;3.70;0.40;;;;;;;;;;4962574;28;20213;-70
2021/01/04 00:11:16;;;;;;;2.40;1.30;;;;;;;;;;4962669;28;20177;-68
2021/01/04 00:13:42;;;;;;;2.30;0.60;;;;;;;;;;4959549;28;20181;-67
2021/01/04 00:16:09;;;;;;;0.17;0.17;;;;;;;;;;4959053;28;20185;-69
2021/01/04 00:18:36;;;;;;;4.83;0.90;;;;;;;;;;4962032;28;20256;-69
2021/01/04 00:21:02;;;;;;;0.00;0.00;;;;;;;;;;4958448;28;20296;-67
2021/01/04 00:23:35;;;;;;;0.00;0.00;;;;;;;;;;4962463;28;20312;-68
2021/01/04 00:26:11;;;;;;;1.80;1.60;;;;;;;;;;4960957;28;20862;-70
2021/01/04 00:28:39;;;;;;;0.00;0.00;;;;;;;;;;4960187;28;20874;-66
2021/01/04 00:31:28;;;;;;;1.40;0.50;;;;;;;;;;4961656;28;20219;-66
2021/01/04 00:33:55;;;;;;;0.20;0.20;;;;;;;;;;4961378;28;20197;-65
2021/01/04 00:36:30;;;;;;;0.27;0.27;;;;;;;;;;4960967;28;20349;-66
2021/01/04 00:38:57;;;;;;;0.60;0.60;;;;;;;;;;4961874;28;20182;-65
2021/01/04 00:41:27;;;;;;;0.20;0.20;;;;;;;;;;4962094;28;20220;-66
2021/01/04 00:43:56;;;;;;;0.53;0.53;;;;;;;;;;4960787;28;20214;-67
2021/01/04 00:46:30;;;;;;;0.00;0.00;;;;;;;;;;4958910;28;20193;-69
2021/01/04 00:49:06;;;;;;;0.00;0.00;;;;;;;;;;4959349;28;20182;-67
2021/01/04 00:51:32;;;;;;;0.10;0.10;;;;;;;;;;4958907;28;20177;-67
2021/01/04 00:54:01;;;;;;;0.80;0.80;;;;;;;;;;4955404;28;20190;-68
2021/01/04 00:56:46;;;;;;;0.10;0.10;;;;;;;;;;4960957;28;20193;-66
2021/01/04 00:59:16;;;;;;;0.37;0.37;;;;;;;;;;4957662;28;20285;-66
2021/01/04 01:01:42;;;;;;;0.07;0.07;;;;;;;;;;4960320;28;20178;-66
2021/01/04 01:04:17;;;;;;;0.07;0.07;;;;;;;;;;4959521;28;20228;-66
2021/01/04 01:06:45;;;;;;;0.00;0.00;;;;;;;;;;4961210;28;20537;-66
2021/01/04 01:09:13;;;;;;;0.00;0.00;;;;;;;;;;4959136;28;20504;-67
2021/01/04 01:11:58;;;;;;;0.27;0.27;;;;;;;;;;4959088;28;20186;-69
2021/01/04 01:14:43;;;;;;;0.10;0.10;;;;;;;;;;4958238;28;20181;-68
2021/01/04 01:17:28;;;;;;;0.20;0.20;;;;;;;;;;4959152;28;20634;-66
2021/01/04 01:19:56;;;;;;;0.90;0.90;;;;;;;;;;4958634;28;20200;-69
2021/01/04 01:22:26;;;;;;;0.87;0.87;;;;;;;;;;4958227;28;20316;-67
2021/01/04 01:24:53;;;;;;;0.00;0.00;;;;;;;;;;4959185;28;20273;-68
2021/01/04 01:27:35;;;;;;;0.93;0.93;;;;;;;;;;4959293;28;20185;-68
2021/01/04 01:30:12;;;;;;;0.33;0.33;;;;;;;;;;4959176;28;20593;-67
2021/01/04 01:33:06;;;;;;;4.37;0.67;;;;;;;;;;4956015;28;20595;-67
2021/01/04 01:35:41;;;;;;;0.10;0.10;;;;;;;;;;4958207;28;20181;-66
2021/01/04 01:38:26;;;;;;;2.60;2.40;;;;;;;;;;4960170;28;20196;-69
2021/01/04 01:41:00;;;;;;;8.60;2.13;;;;;;;;;;4960133;28;20220;-67
2021/01/04 01:43:39;;;;;;;0.30;0.30;;;;;;;;;;4960204;28;20229;-67
2021/01/04 01:46:12;;;;;;;0.53;0.37;;;;;;;;;;4960860;28;20727;-68
2021/01/04 01:49:13;;;;;;;0.03;0.03;;;;;;;;;;4960651;28;20190;-68
2021/01/04 01:51:49;;;;;;;0.00;0.00;;;;;;;;;;4935483;28;20173;-67
2021/01/04 01:54:33;;;;;;;0.20;0.20;;;;;;;;;;4955310;28;20223;-70
2021/01/04 01:57:05;;;;;;;0.37;0.37;;;;;;;;;;4950941;28;20195;-67
2021/01/04 01:59:44;;;;;;;3.50;0.97;;;;;;;;;;4955295;28;20280;-68
2021/01/04 02:02:29;;;;;;;0.20;0.20;;;;;;;;;;4956315;28;20188;-68
2021/01/04 02:05:05;;;;;;;0.00;0.00;;;;;;;;;;4953926;28;20201;-67
2021/01/04 02:07:35;;;;;;;0.00;0.00;;;;;;;;;;4949908;28;20185;-69
2021/01/04 02:10:20;;;;;;;0.20;0.20;;;;;;;;;;4955774;28;20699;-69
2021/01/04 02:12:46;;;;;;;0.10;0.10;;;;;;;;;;4956138;28;21046;-70
2021/01/04 02:15:15;;;;;;;0.10;0.10;;;;;;;;;;4954110;28;20181;-66
2021/01/04 02:17:54;;;;;;;1.60;0.13;;;;;;;;;;4955128;28;20568;-67
2021/01/04 02:20:30;;;;;;;0.63;0.37;;;;;;;;;;4955742;28;20181;-67
2021/01/04 02:23:06;;;;;;;2.47;0.10;;;;;;;;;;4953796;28;20224;-66
2021/01/04 02:25:35;;;;;;;1.40;0.53;;;;;;;;;;4954749;28;21069;-67
2021/01/04 02:28:04;;;;;;;1.17;0.47;;;;;;;;;;4958640;28;20268;-69
2021/01/04 02:30:31;;;;;;;2.13;1.40;;;;;;;;;;4960334;28;20189;-68
2021/01/04 02:32:58;;;;;;;1.93;0.80;;;;;;;;;;4956828;28;20197;-67
2021/01/04 02:35:26;;;;;;;3.13;0.30;;;;;;;;;;4957249;28;20186;-67
2021/01/04 14:20:57;;;;;;;0.00;0.00;;;;;;;;;;5107450;27;20589;-64
2021/01/04 14:23:23;;;;;;;0.10;0.10;;;;;;;;;;5089748;28;20181;-64
2021/01/04 14:25:50;;;;;;;0.00;0.00;;;;;;;;;;5096724;28;20213;-65
2021/01/04 14:28:16;;;;;;;0.00;0.00;;;;;;;;;;5093063;28;20243;-65
2021/01/04 14:30:43;;;;;;;0.00;0.00;;;;;;;;;;5091058;28;20179;-67
2021/01/04 14:33:12;;;;;;;0.10;0.00;;;;;;;;;;5099139;28;20207;-64
2021/01/04 14:35:39;;;;;;;0.10;0.10;;;;;;;;;;5093063;28;20189;-71
2021/01/04 14:38:05;;;;;;;0.00;0.00;;;;;;;;;;5089713;28;20378;-72
2021/01/04 14:40:32;;;;;;;0.40;0.37;;;;;;;;;;5090572;28;20206;-71
2021/01/04 14:42:59;;;;;;;1.03;1.03;;;;;;;;;;5096935;28;20165;-70
2021/01/04 14:45:26;;;;;;;0.00;0.00;;;;;;;;;;5091374;28;20756;-72
2021/01/04 14:47:53;;;;;;;0.20;0.20;;;;;;;;;;5084216;28;20209;-72
2021/01/04 14:50:19;;;;;;;1.53;0.57;;;;;;;;;;5085632;28;20178;-72
2021/01/04 14:52:46;;;;;;;0.00;0.00;;;;;;;;;;5083565;28;20316;-64
2021/01/04 14:55:13;;;;;;;0.00;0.00;;;;;;;;;;5085037;28;20236;-65
2021/01/04 14:57:40;;;;;;;8.20;0.87;;;;;;;;;;5080951;28;20485;-66
2021/01/04 15:00:07;;;;;;;0.00;0.00;;;;;;;;;;5094245;28;20206;-68
2021/01/04 15:02:34;;;;;;;0.00;0.00;;;;;;;;;;5085529;28;20185;-67
2021/01/04 15:05:00;;;;;;;0.00;0.00;;;;;;;;;;5086806;28;20178;-65
2021/01/04 15:07:27;;;;;;;0.00;0.00;;;;;;;;;;5097460;28;20289;-72
2021/01/04 15:09:54;;;;;;;0.00;0.00;;;;;;;;;;5090729;28;20181;-73
2021/01/04 15:12:22;;;;;;;2.07;0.20;;;;;;;;;;5081245;28;20197;-74
2021/01/04 15:14:48;;;;;;;0.00;0.00;;;;;;;;;;5092773;28;20633;-74
2021/01/04 15:17:15;;;;;;;0.10;0.10;;;;;;;;;;5093556;28;20259;-75
2021/01/04 15:19:41;;;;;;;5.00;0.10;;;;;;;;;;5091146;28;20214;-70
2021/01/04 15:22:08;;;;;;;0.00;0.00;;;;;;;;;;5092107;28;20186;-72
2021/01/04 15:24:38;;;;;;;0.00;0.00;;;;;;;;;;5087223;28;20179;-72
2021/01/04 15:27:06;;;;;;;0.00;0.00;;;;;;;;;;5091315;28;20183;-75
2021/01/04 15:29:34;;;;;;;0.10;0.10;;;;;;;;;;5089847;28;20600;-71
2021/01/04 15:32:00;;;;;;;0.03;0.00;;;;;;;;;;5076653;28;20194;-73
2021/01/04 15:34:27;;;;;;;0.00;0.00;;;;;;;;;;5081682;28;20194;-75
2021/01/04 15:36:55;;;;;;;0.00;0.00;;;;;;;;;;5080914;28;21039;-67
2021/01/04 15:39:22;;;;;;;0.00;0.00;;;;;;;;;;5076901;28;20214;-64
2021/01/04 15:42:07;;;;;;;0.00;0.00;;;;;;;;;;5080600;28;20185;-66
2021/01/04 15:44:34;;;;;;;0.00;0.00;;;;;;;;;;5065277;28;20183;-65
2021/01/04 15:47:01;;;;;;;0.00;0.00;;;;;;;;;;5063501;28;20214;-66
2021/01/04 15:49:29;;;;;;;0.83;0.83;;;;;;;;;;5064193;28;20253;-65
2021/01/04 15:51:58;;;;;;;1.40;0.87;;;;;;;;;;5075959;28;20607;-65
2021/01/04 15:54:25;;;;;;;0.20;0.13;;;;;;;;;;5071573;28;20860;-65
2021/01/04 15:56:52;;;;;;;0.00;0.00;;;;;;;;;;5072454;28;20887;-65
2021/01/04 15:59:19;;;;;;;0.00;0.00;;;;;;;;;;5067837;28;20215;-64
2021/01/04 16:01:46;;;;;;;0.00;0.00;;;;;;;;;;5082401;28;20534;-66
2021/01/04 16:04:14;;;;;;;0.77;0.67;;;;;;;;;;5078361;28;20180;-65
2021/01/04 16:06:54;;;;;;;0.00;0.00;;;;;;;;;;5070466;28;20210;-72
2021/01/04 16:09:22;;;;;;;0.00;0.00;;;;;;;;;;5076141;28;20681;-71
2021/01/04 16:11:48;;;;;;;0.00;0.00;;;;;;;;;;5077491;28;20218;-73
2021/01/04 16:14:15;;;;;;;0.00;0.00;;;;;;;;;;5081640;28;20875;-68
2021/01/04 16:16:43;;;;;;;0.00;0.00;;;;;;;;;;5077422;28;20406;-68
2021/01/04 16:19:10;;;;;;;1.43;0.23;;;;;;;;;;5070761;28;20604;-70
2021/01/04 16:21:36;;;;;;;0.00;0.00;;;;;;;;;;5067476;28;20293;-70
2021/01/04 16:24:03;;;;;;;0.00;0.00;;;;;;;;;;5071707;28;20174;-69
2021/01/04 16:26:30;;;;;;;0.83;0.10;;;;;;;;;;5071850;28;20193;-74
2021/01/04 16:28:56;;;;;;;0.10;0.10;;;;;;;;;;5076147;28;20217;-71
2021/01/04 16:31:23;;;;;;;0.00;0.00;;;;;;;;;;5076365;28;20193;-71
2021/01/04 16:33:50;;;;;;;0.27;0.10;;;;;;;;;;5081703;28;20185;-70
2021/01/04 16:36:18;;;;;;;0.10;0.10;;;;;;;;;;5076534;28;20275;-74
2021/01/04 16:38:46;;;;;;;1.27;0.10;;;;;;;;;;5072218;28;20203;-70
2021/01/04 16:41:16;;;;;;;0.00;0.00;;;;;;;;;;5079290;28;20178;-71
2021/01/04 16:43:43;;;;;;;0.00;0.00;;;;;;;;;;5077773;28;20200;-71
2021/01/04 16:46:10;;;;;;;0.00;0.00;;;;;;;;;;5073484;28;20300;-72
2021/01/04 16:48:36;;;;;;;0.13;0.13;;;;;;;;;;5075588;28;21016;-72
2021/01/04 16:51:03;;;;;;;0.00;0.00;;;;;;;;;;5073628;28;20194;-72
2021/01/04 16:53:29;;;;;;;0.20;0.20;;;;;;;;;;5077625;28;20186;-71
2021/01/04 16:55:56;;;;;;;1.57;0.57;;;;;;;;;;5073646;28;20218;-72
2021/01/04 16:58:23;;;;;;;0.00;0.00;;;;;;;;;;5081132;28;20773;-72
2021/01/04 17:00:49;;;;;;;0.00;0.00;;;;;;;;;;5071854;28;20221;-75
2021/01/04 17:03:16;;;;;;;0.00;0.00;;;;;;;;;;5077248;28;20194;-73
2021/01/04 17:05:42;;;;;;;0.00;0.00;;;;;;;;;;5078615;28;20243;-67
2021/01/04 17:08:09;;;;;;;0.10;0.07;;;;;;;;;;5067027;28;20198;-66
2021/01/04 17:10:36;;;;;;;0.00;0.00;;;;;;;;;;5067754;28;20291;-67
2021/01/04 17:13:02;;;;;;;0.00;0.00;;;;;;;;;;5072689;28;20201;-67
2021/01/04 17:15:29;;;;;;;0.00;0.00;;;;;;;;;;5074200;28;20610;-67
2021/01/04 17:17:55;;;;;;;0.00;0.00;;;;;;;;;;5074202;28;20376;-66
2021/01/04 17:20:22;;;;;;;0.10;0.10;;;;;;;;;;5075186;28;20333;-67
2021/01/04 17:22:49;;;;;;;0.00;0.00;;;;;;;;;;5072779;28;20725;-66
2021/01/04 17:25:15;;;;;;;0.00;0.00;;;;;;;;;;5074712;28;20194;-66
2021/01/04 17:27:42;;;;;;;0.00;0.00;;;;;;;;;;5069444;28;20183;-67
2021/01/04 17:30:09;;;;;;;0.00;0.00;;;;;;;;;;5077702;28;20187;-66
2021/01/04 17:32:43;;;;;;;0.73;0.27;;;;;;;;;;5075733;28;20190;-66
2021/01/04 17:35:10;;;;;;;8.40;5.93;;;;;;;;;;5068836;28;20187;-64
2021/01/04 17:37:36;;;;;;;0.00;0.00;;;;;;;;;;5068385;28;20799;-64
2021/01/04 17:40:04;;;;;;;0.00;0.00;;;;;;;;;;5073830;28;20225;-72
2021/01/04 17:42:40;;;;;;;1.33;0.33;;;;;;;;;;5070642;28;20189;-76
2021/01/04 17:45:07;;;;;;;0.00;0.00;;;;;;;;;;5077663;28;20809;-73
2021/01/04 17:47:33;;;;;;;4.30;1.80;;;;;;;;;;5076820;28;20615;-71
2021/01/04 17:50:00;;;;;;;0.00;0.00;;;;;;;;;;5071041;28;20197;-71
2021/01/04 17:52:26;;;;;;;0.00;0.00;;;;;;;;;;5079497;28;20258;-72
2021/01/04 17:54:53;;;;;;;0.00;0.00;;;;;;;;;;5069299;28;20191;-72
2021/01/04 17:57:20;;;;;;;0.17;0.17;;;;;;;;;;5060011;28;20603;-76
2021/01/04 17:59:47;;;;;;;0.23;0.03;;;;;;;;;;5076577;28;20210;-66
2021/01/04 18:02:14;;;;;;;0.00;0.00;;;;;;;;;;5071266;28;20181;-66
2021/01/04 18:04:40;;;;;;;0.00;0.00;;;;;;;;;;5079392;28;20193;-65
2021/01/04 18:07:08;;;;;;;0.00;0.00;;;;;;;;;;5074343;28;20245;-67
2021/01/04 18:09:34;;;;;;;0.00;0.00;;;;;;;;;;5074457;28;20212;-66
2021/01/04 18:12:03;;;;;;;0.10;0.10;;;;;;;;;;5079670;28;20186;-66
2021/01/04 18:14:33;;;;;;;2.33;2.13;;;;;;;;;;5074237;28;20190;-67
2021/01/04 18:16:59;;;;;;;0.00;0.00;;;;;;;;;;5074221;28;20267;-67
2021/01/04 18:19:26;;;;;;;0.00;0.00;;;;;;;;;;5078238;28;20221;-66
2021/01/04 18:21:52;;;;;;;0.00;0.00;;;;;;;;;;5062607;28;20239;-66
2021/01/04 18:24:19;;;;;;;0.23;0.10;;;;;;;;;;5061930;28;20297;-67
2021/01/04 18:26:46;;;;;;;2.60;0.13;;;;;;;;;;5078163;28;20185;-67
2021/01/04 18:29:13;;;;;;;0.10;0.10;;;;;;;;;;5075674;28;20855;-67
2021/01/04 18:31:42;;;;;;;8.90;2.07;;;;;;;;;;5076985;28;20217;-68
2021/01/04 18:34:09;;;;;;;0.00;0.00;;;;;;;;;;5074315;28;20198;-70
2021/01/04 18:36:36;;;;;;;0.13;0.13;;;;;;;;;;5077211;28;20196;-70
2021/01/04 18:39:04;;;;;;;0.00;0.00;;;;;;;;;;5075321;28;20210;-76
2021/01/04 18:41:31;;;;;;;0.00;0.00;;;;;;;;;;5075824;28;20190;-78
2021/01/04 18:43:58;;;;;;;0.07;0.07;;;;;;;;;;5078461;28;20186;-78
2021/01/04 18:46:27;;;;;;;0.17;0.17;;;;;;;;;;5065368;28;20255;-79
2021/01/04 18:48:53;;;;;;;5.40;0.43;;;;;;;;;;5074137;28;20657;-79
2021/01/04 18:51:35;;;;;;;0.00;0.00;;;;;;;;;;5078352;28;20176;-78
2021/01/04 18:54:02;;;;;;;0.00;0.00;;;;;;;;;;5060068;28;20191;-74
2021/01/04 18:56:29;;;;;;;0.00;0.00;;;;;;;;;;5062353;28;20381;-72
2021/01/04 18:58:57;;;;;;;0.13;0.13;;;;;;;;;;5079465;28;21032;-78
2021/01/04 19:01:23;;;;;;;0.00;0.00;;;;;;;;;;5079856;28;20187;-75
2021/01/04 19:06:58;;;;;;;0.00;0.00;;;;;;;;;;5068194;28;20209;-75
2021/01/04 19:09:25;;;;;;;0.17;0.17;;;;;;;;;;5064252;28;20202;-76
2021/01/04 19:11:53;;;;;;;0.00;0.00;;;;;;;;;;5063628;28;20194;-75
2021/01/04 19:14:21;;;;;;;0.00;0.00;;;;;;;;;;5081126;28;20197;-75
2021/01/04 19:16:54;;;;;;;0.00;0.00;;;;;;;;;;5082197;28;20554;-78
2021/01/04 19:19:21;;;;;;;0.00;0.00;;;;;;;;;;5076945;28;20547;-79
2021/01/04 19:21:48;;;;;;;0.10;0.00;;;;;;;;;;5087753;28;20183;-79
2021/01/04 19:24:15;;;;;;;1.17;0.33;;;;;;;;;;5087294;28;20186;-81
2021/01/04 19:26:47;;;;;;;6.80;0.20;;;;;;;;;;5076457;28;20174;-75
2021/01/04 19:29:19;;;;;;;0.00;0.00;;;;;;;;;;5072033;28;20637;-72
2021/01/04 19:31:54;;;;;;;0.00;0.00;;;;;;;;;;5078832;28;20201;-73
2021/01/04 19:34:21;;;;;;;0.07;0.00;;;;;;;;;;5078813;28;20239;-72
2021/01/04 19:36:51;;;;;;;2.73;0.30;;;;;;;;;;5076511;28;20187;-68
2021/01/04 19:39:20;;;;;;;0.63;0.10;;;;;;;;;;5067190;28;20202;-64
2021/01/04 19:41:47;;;;;;;0.40;0.40;;;;;;;;;;5082794;28;20186;-66
2021/01/04 19:44:14;;;;;;;0.10;0.10;;;;;;;;;;5081755;28;20212;-66
2021/01/04 19:46:41;;;;;;;0.00;0.00;;;;;;;;;;5081472;28;20178;-66
2021/01/04 19:49:08;;;;;;;0.20;0.20;;;;;;;;;;5072057;28;20189;-73
2021/01/04 19:51:35;;;;;;;0.00;0.00;;;;;;;;;;5072523;28;20297;-73
2021/01/04 19:54:02;;;;;;;0.00;0.00;;;;;;;;;;5066913;28;20279;-74
2021/01/04 19:56:29;;;;;;;0.00;0.00;;;;;;;;;;5065546;28;20237;-74
2021/01/04 19:58:55;;;;;;;0.00;0.00;;;;;;;;;;5066589;28;20187;-72
2021/01/04 20:01:24;;;;;;;0.00;0.00;;;;;;;;;;5062387;28;20222;-73
2021/01/04 20:03:50;;;;;;;4.87;0.23;;;;;;;;;;5071268;28;20190;-72
2021/01/04 20:06:18;;;;;;;0.10;0.10;;;;;;;;;;5068019;28;20187;-72
2021/01/04 20:08:44;;;;;;;0.00;0.00;;;;;;;;;;5067867;28;20201;-71
2021/01/04 20:11:12;;;;;;;0.20;0.10;;;;;;;;;;5075865;28;20206;-72
2021/01/04 20:13:38;;;;;;;0.00;0.00;;;;;;;;;;5070723;28;20917;-73
2021/01/04 20:16:08;;;;;;;0.00;0.00;;;;;;;;;;5069679;28;20175;-72
2021/01/04 20:18:35;;;;;;;0.00;0.00;;;;;;;;;;5062622;28;20206;-72
2021/01/04 20:21:02;;;;;;;0.00;0.00;;;;;;;;;;5071686;28;20246;-71
2021/01/04 20:23:29;;;;;;;0.00;0.00;;;;;;;;;;5064393;28;20187;-70
2021/01/04 20:25:55;;;;;;;0.10;0.10;;;;;;;;;;5076915;28;20209;-69
2021/01/04 20:28:22;;;;;;;0.00;0.00;;;;;;;;;;5073082;28;20213;-71
2021/01/04 20:30:51;;;;;;;0.00;0.00;;;;;;;;;;5080234;28;20179;-71
2021/01/04 20:33:19;;;;;;;0.00;0.00;;;;;;;;;;5066057;28;20217;-75
2021/01/04 20:35:45;;;;;;;1.30;0.93;;;;;;;;;;5063216;28;20195;-70
2021/01/04 20:38:12;;;;;;;0.00;0.00;;;;;;;;;;5068314;28;20286;-73
2021/01/04 20:40:38;;;;;;;0.00;0.00;;;;;;;;;;5066742;28;20209;-71
2021/01/04 20:43:05;;;;;;;0.00;0.00;;;;;;;;;;5081410;28;20219;-70
2021/01/04 20:45:31;;;;;;;0.10;0.07;;;;;;;;;;5071782;28;20464;-71
2021/01/04 20:47:58;;;;;;;0.00;0.00;;;;;;;;;;5065905;28;20310;-70
2021/01/04 20:50:25;;;;;;;0.00;0.00;;;;;;;;;;5062990;28;20182;-74
2021/01/04 20:52:51;;;;;;;0.00;0.00;;;;;;;;;;5072476;28;20189;-72
2021/01/04 20:55:18;;;;;;;0.00;0.00;;;;;;;;;;5071451;28;20686;-71
2021/01/04 20:57:46;;;;;;;0.00;0.00;;;;;;;;;;5069218;28;20195;-74
2021/01/04 21:00:14;;;;;;;0.00;0.00;;;;;;;;;;5074019;28;20313;-72
2021/01/04 21:02:41;;;;;;;0.57;0.57;;;;;;;;;;5073235;28;20261;-72
2021/01/04 21:05:09;;;;;;;0.10;0.10;;;;;;;;;;5065858;28;20196;-72
2021/01/04 21:07:35;;;;;;;0.13;0.13;;;;;;;;;;5072049;28;20194;-69
2021/01/04 21:10:04;;;;;;;0.00;0.00;;;;;;;;;;5078233;28;20196;-69
2021/01/04 21:12:30;;;;;;;0.90;0.43;;;;;;;;;;5080492;28;20422;-70
2021/01/04 21:14:57;;;;;;;0.00;0.00;;;;;;;;;;5079503;28;20255;-69
2021/01/04 21:17:24;;;;;;;0.00;0.00;;;;;;;;;;5076133;28;20298;-70
2021/01/04 21:19:56;;;;;;;0.20;0.20;;;;;;;;;;5078214;28;20227;-67
2021/01/04 21:22:23;;;;;;;0.00;0.00;;;;;;;;;;5080621;28;20217;-68
2021/01/04 21:24:50;;;;;;;0.00;0.00;;;;;;;;;;5080278;28;20182;-69
2021/01/04 21:27:16;;;;;;;0.00;0.00;;;;;;;;;;5082451;28;20619;-69
2021/01/04 21:29:43;;;;;;;0.73;0.23;;;;;;;;;;5065788;28;20201;-69
2021/01/04 21:32:11;;;;;;;0.00;0.00;;;;;;;;;;5061648;28;20228;-69
2021/01/04 21:34:38;;;;;;;0.93;0.50;;;;;;;;;;5067710;28;20186;-69
2021/01/04 21:37:08;;;;;;;1.30;0.23;;;;;;;;;;5076795;28;20867;-69
2021/01/04 21:39:34;;;;;;;0.03;0.03;;;;;;;;;;5076475;28;20553;-69
2021/01/04 21:42:06;;;;;;;0.30;0.30;;;;;;;;;;5067485;28;20622;-69
2021/01/04 21:44:35;;;;;;;0.00;0.00;;;;;;;;;;5081783;28;20197;-69
2021/01/04 21:47:01;;;;;;;0.00;0.00;;;;;;;;;;5075332;28;20197;-65
2021/01/04 21:49:28;;;;;;;0.20;0.20;;;;;;;;;;5060539;28;20271;-64
2021/01/04 21:51:55;;;;;;;0.00;0.00;;;;;;;;;;5065388;28;20201;-65
2021/01/04 21:54:23;;;;;;;0.83;0.83;;;;;;;;;;5061022;28;20205;-69
2021/01/04 21:56:54;;;;;;;0.00;0.00;;;;;;;;;;5066723;28;20190;-69
2021/01/04 21:59:24;;;;;;;0.00;0.00;;;;;;;;;;5080001;28;20237;-68
2021/01/04 22:02:01;;;;;;;0.00;0.00;;;;;;;;;;5081287;28;20185;-68
2021/01/04 22:04:28;;;;;;;3.33;0.63;;;;;;;;;;5078572;28;20188;-69
2021/01/04 22:06:55;;;;;;;0.00;0.00;;;;;;;;;;5081916;28;20299;-69
2021/01/04 22:09:22;;;;;;;0.00;0.00;;;;;;;;;;5065708;28;20190;-69
2021/01/04 22:11:50;;;;;;;0.00;0.00;;;;;;;;;;5072108;28;20197;-71
2021/01/04 22:14:16;;;;;;;0.00;0.00;;;;;;;;;;5060534;28;20750;-69
2021/01/04 22:16:52;;;;;;;0.00;0.00;;;;;;;;;;5077376;28;20263;-71
2021/01/04 22:19:19;;;;;;;0.00;0.00;;;;;;;;;;5066965;28;20923;-69
2021/01/04 22:21:46;;;;;;;2.03;0.27;;;;;;;;;;5076521;28;20189;-69
2021/01/04 22:24:12;;;;;;;0.37;0.37;;;;;;;;;;5065039;28;20186;-66
2021/01/04 22:26:39;;;;;;;2.00;1.80;;;;;;;;;;5065974;28;20190;-66
2021/01/04 22:29:06;;;;;;;0.00;0.00;;;;;;;;;;5070583;28;20232;-66
2021/01/04 22:31:33;;;;;;;0.10;0.10;;;;;;;;;;5076492;28;20193;-65
2021/01/04 22:34:00;;;;;;;0.13;0.10;;;;;;;;;;5082245;28;20193;-67
2021/01/04 22:36:28;;;;;;;0.00;0.00;;;;;;;;;;5075436;28;20275;-66
2021/01/04 22:38:55;;;;;;;0.00;0.00;;;;;;;;;;5069859;28;20192;-66
2021/01/04 22:41:23;;;;;;;5.53;0.50;;;;;;;;;;5076529;28;20186;-66
2021/01/04 22:43:50;;;;;;;0.00;0.00;;;;;;;;;;5074872;28;20206;-67
2021/01/04 22:46:17;;;;;;;0.00;0.00;;;;;;;;;;5079482;28;20263;-67
2021/01/04 22:48:44;;;;;;;0.00;0.00;;;;;;;;;;5082684;28;20213;-67
2021/01/04 22:51:11;;;;;;;0.00;0.00;;;;;;;;;;5072271;28;20194;-68
2021/01/04 22:53:38;;;;;;;0.30;0.30;;;;;;;;;;5065455;28;20636;-69
2021/01/04 22:56:07;;;;;;;0.00;0.00;;;;;;;;;;5078444;28;20189;-68
2021/01/04 22:58:34;;;;;;;0.00;0.00;;;;;;;;;;5083968;28;20708;-68
2021/01/04 23:01:00;;;;;;;0.00;0.00;;;;;;;;;;5080796;28;20221;-67
2021/01/04 23:03:27;;;;;;;0.80;0.50;;;;;;;;;;5079824;28;20201;-65
2021/01/04 23:05:53;;;;;;;0.10;0.10;;;;;;;;;;5078047;28;20194;-64
2021/01/04 23:08:22;;;;;;;0.20;0.20;;;;;;;;;;5082296;28;20301;-65
2021/01/04 23:10:49;;;;;;;0.27;0.23;;;;;;;;;;5078718;28;20194;-64
2021/01/04 23:13:17;;;;;;;0.00;0.00;;;;;;;;;;5081194;28;20288;-64
